createdAt,value
2022-12-03T00:01:34.028Z,5.89
2022-12-03T00:04:02.184Z,5.90
2022-12-03T00:06:34.366Z,6.16
2022-12-03T00:09:02.783Z,5.96
2022-12-03T00:11:32.120Z,5.92
2022-12-03T00:14:00.046Z,5.82
2022-12-03T00:16:28.252Z,5.82
2022-12-03T00:18:56.337Z,5.60
2022-12-03T00:21:24.859Z,5.79
2022-12-03T00:23:52.970Z,5.77
2022-12-03T00:26:20.985Z,5.67
2022-12-03T00:28:50.272Z,5.65
2022-12-03T00:31:18.582Z,5.57
2022-12-03T00:33:46.534Z,5.42
2022-12-03T00:36:14.431Z,5.50
2022-12-03T00:38:42.390Z,5.40
2022-12-03T00:41:10.277Z,5.39
2022-12-03T00:43:38.145Z,5.42
2022-12-03T00:46:07.651Z,5.42
2022-12-03T00:48:35.646Z,5.37
2022-12-03T00:51:03.567Z,5.60
2022-12-03T00:53:31.414Z,5.56
2022-12-03T00:56:01.559Z,5.56
2022-12-03T00:58:29.451Z,5.56
2022-12-03T01:00:57.309Z,5.79
2022-12-03T01:03:26.700Z,5.84
2022-12-03T01:05:54.640Z,5.75
2022-12-03T01:08:22.586Z,5.59
2022-12-03T01:10:50.489Z,5.56
2022-12-03T01:13:18.453Z,5.76
2022-12-03T01:15:46.377Z,5.70
2022-12-03T01:18:14.339Z,5.46
2022-12-03T01:20:43.780Z,5.54
2022-12-03T01:23:11.719Z,5.64
2022-12-03T01:25:39.667Z,5.77
2022-12-03T01:28:07.582Z,5.84
2022-12-03T01:30:55.631Z,5.85
2022-12-03T01:33:22.678Z,5.86
2022-12-03T01:35:52.003Z,6.11
2022-12-03T01:38:19.919Z,6.02
2022-12-03T01:40:49.945Z,5.82
2022-12-03T01:43:17.964Z,5.63
2022-12-03T01:45:45.872Z,5.92
2022-12-03T01:48:16.681Z,5.92
2022-12-03T01:50:45.399Z,5.50
2022-12-03T01:53:18.314Z,5.60
2022-12-03T01:55:48.940Z,5.62
2022-12-03T01:58:21.236Z,5.81
2022-12-03T02:00:49.133Z,5.82
2022-12-03T02:03:22.191Z,6.04
2022-12-03T02:05:50.393Z,6.20
2022-12-03T02:08:33.993Z,6.16
2022-12-03T02:11:06.799Z,6.15
2022-12-03T02:13:35.028Z,6.04
2022-12-03T02:16:03.024Z,5.70
2022-12-03T02:18:31.073Z,5.91
2022-12-03T02:21:05.712Z,6.07
2022-12-03T02:23:41.237Z,6.06
2022-12-03T02:26:10.736Z,5.84
2022-12-03T02:28:39.229Z,5.97
2022-12-03T02:31:07.865Z,5.83
2022-12-03T02:33:36.040Z,5.81
2022-12-03T02:36:04.367Z,5.93
2022-12-03T02:38:35.369Z,6.00
2022-12-03T02:41:06.923Z,5.86
2022-12-03T02:43:35.488Z,5.87
2022-12-03T02:46:04.825Z,5.69
2022-12-03T02:48:35.873Z,5.60
2022-12-03T02:51:08.310Z,5.64
2022-12-03T02:53:42.432Z,5.85
2022-12-03T02:56:13.131Z,5.79
2022-12-03T02:58:44.966Z,5.77
2022-12-03T03:01:15.475Z,5.75
2022-12-03T03:03:45.676Z,5.91
2022-12-03T03:06:14.300Z,5.88
2022-12-03T03:08:43.501Z,5.95
2022-12-03T03:11:12.244Z,5.92
2022-12-03T03:13:42.310Z,5.85
2022-12-03T03:16:11.586Z,5.86
2022-12-03T03:18:39.675Z,5.75
2022-12-03T03:21:08.238Z,5.84
2022-12-03T03:23:36.137Z,5.85
2022-12-03T03:26:19.348Z,5.72
2022-12-03T03:28:50.986Z,5.61
2022-12-03T03:31:22.567Z,5.59
2022-12-03T03:33:51.355Z,5.61
2022-12-03T03:36:20.194Z,5.55
2022-12-03T03:38:48.746Z,5.43
2022-12-03T03:41:17.558Z,5.54
2022-12-03T03:43:47.170Z,5.61
2022-12-03T03:46:17.594Z,5.48
2022-12-03T03:48:45.584Z,5.48
2022-12-03T03:51:14.472Z,5.34
2022-12-03T03:53:45.759Z,5.34
2022-12-03T03:56:13.903Z,5.40
2022-12-03T03:58:42.072Z,5.47
2022-12-03T04:01:12.210Z,5.72
2022-12-03T04:03:42.122Z,5.74
2022-12-03T04:06:10.498Z,5.71
2022-12-03T04:08:38.445Z,5.76
2022-12-03T04:11:24.016Z,5.73
2022-12-03T04:13:52.000Z,5.81
2022-12-03T04:16:19.970Z,5.68
2022-12-03T04:18:49.358Z,5.68
2022-12-03T04:21:36.810Z,5.59
2022-12-03T04:24:06.051Z,5.64
2022-12-03T04:26:51.835Z,5.78
2022-12-03T04:29:20.232Z,5.62
2022-12-03T04:32:06.113Z,5.59
2022-12-03T04:34:53.303Z,5.42
2022-12-03T04:37:21.567Z,5.47
2022-12-03T04:39:49.566Z,5.49
2022-12-03T04:42:17.632Z,5.61
2022-12-03T04:44:45.531Z,5.66
2022-12-03T04:47:14.665Z,5.64
2022-12-03T04:49:45.664Z,5.57
2022-12-03T04:52:15.629Z,5.52
2022-12-03T04:54:44.224Z,5.63
2022-12-03T04:57:13.095Z,5.86
2022-12-03T04:59:41.170Z,5.79
2022-12-03T05:02:09.189Z,5.76
2022-12-03T05:04:37.550Z,5.74
2022-12-03T05:07:06.859Z,5.85
2022-12-03T05:09:34.828Z,5.87
2022-12-03T05:12:03.807Z,6.07
2022-12-03T05:14:31.751Z,5.94
2022-12-03T05:16:59.773Z,5.94
2022-12-03T05:19:47.845Z,5.83
2022-12-03T05:22:16.137Z,5.79
2022-12-03T05:24:44.031Z,5.50
2022-12-03T05:27:11.976Z,5.45
2022-12-03T05:29:39.940Z,5.39
2022-12-03T05:32:07.893Z,5.45
2022-12-03T05:34:35.813Z,5.47
2022-12-03T05:37:03.696Z,5.64
2022-12-03T05:39:33.075Z,5.62
2022-12-03T05:42:18.270Z,5.64
2022-12-03T05:44:46.197Z,5.75
2022-12-03T05:47:14.296Z,5.57
2022-12-03T05:49:42.222Z,5.71
2022-12-03T05:52:10.168Z,5.95
2022-12-03T05:54:39.392Z,6.02
2022-12-03T05:57:07.299Z,5.92
2022-12-03T05:59:35.335Z,5.85
2022-12-03T06:02:03.310Z,5.76
2022-12-03T06:04:31.265Z,5.62
2022-12-03T06:06:59.192Z,5.47
2022-12-03T06:09:27.049Z,5.57
2022-12-03T06:11:56.617Z,5.62
2022-12-03T06:14:24.585Z,5.68
2022-12-03T06:16:52.521Z,5.77
2022-12-03T06:19:20.560Z,5.81
2022-12-03T06:21:48.525Z,5.79
2022-12-03T06:24:16.449Z,5.74
2022-12-03T06:26:44.401Z,5.68
2022-12-03T06:29:13.694Z,5.53
2022-12-03T06:31:41.839Z,5.71
2022-12-03T06:34:09.763Z,5.54
2022-12-03T06:36:37.694Z,5.72
2022-12-03T06:39:05.665Z,5.76
2022-12-03T06:41:33.540Z,5.84
2022-12-03T06:44:01.567Z,5.85
2022-12-03T06:46:30.980Z,5.88
2022-12-03T06:48:58.939Z,6.07
2022-12-03T06:51:26.926Z,6.14
2022-12-03T06:53:55.121Z,6.18
2022-12-03T06:56:22.992Z,6.00
2022-12-03T06:58:50.909Z,6.15
2022-12-03T07:01:18.927Z,6.12
2022-12-03T07:03:48.456Z,5.98
2022-12-03T07:06:16.670Z,5.85
2022-12-03T07:08:44.733Z,5.98
2022-12-03T07:11:26.583Z,6.05
2022-12-03T07:13:56.234Z,5.97
2022-12-03T07:16:25.965Z,5.95
2022-12-03T07:18:55.528Z,6.03
2022-12-03T07:21:23.501Z,5.98
2022-12-03T07:23:51.438Z,6.08
2022-12-03T07:26:19.362Z,6.09
2022-12-03T07:28:48.323Z,6.25
2022-12-03T07:31:16.482Z,6.46
2022-12-03T07:33:44.524Z,6.28
2022-12-03T07:36:13.986Z,6.53
2022-12-03T07:38:41.877Z,6.50
2022-12-03T07:41:09.913Z,6.33
2022-12-03T07:43:37.890Z,6.36
2022-12-03T07:46:06.069Z,6.41
2022-12-03T07:48:33.977Z,6.34
2022-12-03T07:51:01.888Z,6.22
2022-12-03T07:53:31.513Z,6.54
2022-12-03T07:55:59.401Z,6.16
2022-12-03T07:58:27.336Z,6.30
2022-12-03T08:00:55.425Z,6.33
2022-12-03T08:03:23.401Z,6.50
2022-12-03T08:05:51.347Z,6.53
2022-12-03T08:08:19.338Z,6.66
2022-12-03T08:10:48.745Z,6.76
2022-12-03T08:13:18.680Z,6.75
2022-12-03T08:15:47.298Z,6.91
2022-12-03T08:18:17.083Z,6.82
2022-12-03T08:20:48.154Z,6.74
2022-12-03T08:23:18.545Z,6.76
2022-12-03T08:25:48.739Z,6.96
2022-12-03T08:28:19.133Z,6.80
2022-12-03T08:30:59.071Z,6.83
2022-12-03T08:33:29.866Z,6.84
2022-12-03T08:35:57.815Z,7.01
2022-12-03T08:38:26.275Z,7.12
2022-12-03T08:40:56.329Z,7.28
2022-12-03T08:43:26.042Z,7.43
2022-12-03T08:45:55.063Z,7.48
2022-12-03T08:48:28.213Z,7.29
2022-12-03T08:50:58.828Z,7.24
2022-12-03T08:53:32.638Z,7.25
2022-12-03T08:56:03.737Z,7.04
2022-12-03T08:58:40.658Z,6.85
2022-12-03T09:01:33.990Z,7.05
2022-12-03T09:04:27.381Z,7.05
2022-12-03T09:06:55.973Z,7.12
2022-12-03T09:09:24.522Z,7.33
2022-12-03T09:11:54.695Z,7.53
2022-12-03T09:14:23.730Z,7.34
2022-12-03T09:16:56.652Z,7.37
2022-12-03T09:19:25.380Z,7.35
2022-12-03T09:21:53.660Z,7.21
2022-12-03T09:24:21.928Z,6.89
2022-12-03T09:26:50.009Z,6.78
2022-12-03T09:29:19.317Z,7.09
2022-12-03T09:31:47.392Z,7.15
2022-12-03T09:34:15.649Z,7.09
2022-12-03T09:36:43.535Z,7.06
2022-12-03T09:39:11.557Z,7.02
2022-12-03T09:41:39.776Z,7.30
2022-12-03T09:44:13.756Z,7.41
2022-12-03T09:46:49.079Z,7.42
2022-12-03T09:49:19.109Z,7.76
2022-12-03T09:51:47.706Z,7.80
2022-12-03T09:54:24.133Z,7.59
2022-12-03T09:56:52.935Z,7.90
2022-12-03T09:59:22.852Z,7.71
2022-12-03T10:01:53.517Z,7.81
2022-12-03T10:04:21.882Z,7.93
2022-12-03T10:06:49.948Z,8.02
2022-12-03T10:09:27.280Z,8.00
2022-12-03T10:11:58.469Z,7.84
2022-12-03T10:14:26.871Z,7.93
2022-12-03T10:16:56.424Z,7.98
2022-12-03T10:19:28.714Z,8.02
2022-12-03T10:21:56.814Z,8.13
2022-12-03T10:24:28.866Z,7.98
2022-12-03T10:26:58.595Z,7.88
2022-12-03T10:29:33.238Z,7.99
2022-12-03T10:32:05.542Z,7.75
2022-12-03T10:34:35.030Z,7.88
2022-12-03T10:37:15.077Z,7.51
2022-12-03T10:39:59.935Z,8.05
2022-12-03T10:42:30.438Z,8.18
2022-12-03T10:45:13.667Z,8.22
2022-12-03T10:47:43.512Z,8.18
2022-12-03T10:50:18.861Z,8.06
2022-12-03T10:52:47.992Z,7.95
2022-12-03T10:55:17.077Z,7.74
2022-12-03T10:57:46.143Z,7.77
2022-12-03T11:00:18.585Z,7.77
2022-12-03T11:02:56.161Z,7.81
2022-12-03T11:05:27.900Z,7.74
2022-12-03T11:07:56.837Z,7.59
2022-12-03T11:10:25.090Z,7.61
2022-12-03T11:13:31.627Z,7.47
2022-12-03T11:16:00.523Z,7.69
2022-12-03T11:19:01.698Z,7.62
2022-12-03T11:21:29.871Z,7.71
2022-12-03T11:24:20.066Z,7.74
2022-12-03T11:27:22.083Z,7.94
2022-12-03T11:29:52.824Z,8.03
2022-12-03T11:33:04.999Z,8.01
2022-12-03T11:36:12.714Z,8.02
2022-12-03T11:38:53.951Z,7.82
2022-12-03T11:41:26.049Z,7.75
2022-12-03T11:44:29.513Z,7.95
2022-12-03T11:47:00.405Z,7.87
2022-12-03T11:49:36.668Z,7.74
2022-12-03T11:52:21.409Z,7.53
2022-12-03T11:54:53.164Z,7.48
2022-12-03T11:57:36.956Z,7.70
2022-12-03T12:00:23.612Z,7.62
2022-12-03T12:02:55.758Z,7.72
2022-12-03T12:05:28.283Z,7.64
2022-12-03T12:07:59.193Z,7.64
2022-12-03T12:10:45.605Z,7.77
2022-12-03T12:13:28.969Z,7.92
2022-12-03T12:15:57.122Z,7.82
2022-12-03T12:18:39.095Z,7.90
2022-12-03T12:21:47.510Z,8.02
2022-12-03T12:24:46.831Z,7.72
2022-12-03T12:27:16.347Z,7.77
2022-12-03T12:29:47.289Z,7.85
2022-12-03T12:32:17.209Z,7.89
2022-12-03T12:34:47.473Z,7.75
2022-12-03T12:37:20.282Z,7.58
2022-12-03T12:39:49.768Z,7.53
2022-12-03T12:42:30.901Z,7.73
2022-12-03T12:45:02.402Z,7.78
2022-12-03T12:47:31.817Z,7.58
2022-12-03T12:50:00.314Z,7.62
2022-12-03T12:52:28.915Z,7.58
2022-12-03T12:55:04.586Z,7.38
2022-12-03T12:57:35.020Z,7.62
2022-12-03T13:00:05.897Z,7.57
2022-12-03T13:02:43.290Z,7.70
2022-12-03T13:05:13.815Z,8.06
2022-12-03T13:07:43.455Z,8.02
2022-12-03T13:10:26.321Z,7.94
2022-12-03T13:12:54.330Z,7.82
2022-12-03T13:15:40.686Z,7.77
2022-12-03T13:18:22.904Z,7.85
2022-12-03T13:20:50.862Z,7.73
2022-12-03T13:23:28.774Z,7.91
2022-12-03T13:26:09.249Z,7.76
2022-12-03T13:28:46.558Z,7.78
2022-12-03T13:31:23.330Z,7.84
2022-12-03T13:33:52.290Z,7.81
2022-12-03T13:36:23.319Z,7.92
2022-12-03T13:38:51.250Z,7.69
2022-12-03T13:41:39.787Z,7.68
2022-12-03T13:44:19.484Z,7.72
2022-12-03T13:46:48.265Z,7.74
2022-12-03T13:49:21.644Z,7.71
2022-12-03T13:51:50.292Z,7.67
2022-12-03T13:54:23.186Z,7.63
2022-12-03T13:56:52.547Z,7.60
2022-12-03T13:59:25.763Z,7.66
2022-12-03T14:01:54.496Z,7.65
2022-12-03T14:04:22.500Z,7.56
2022-12-03T14:06:50.638Z,7.51
2022-12-03T14:09:18.578Z,7.56
2022-12-03T14:12:03.928Z,7.47
2022-12-03T14:14:33.395Z,7.47
2022-12-03T14:17:01.353Z,7.50
2022-12-03T14:19:29.437Z,7.38
2022-12-03T14:21:58.265Z,7.57
2022-12-03T14:24:26.265Z,7.49
2022-12-03T14:26:54.304Z,7.66
2022-12-03T14:29:22.280Z,7.62
2022-12-03T14:31:51.687Z,7.70
2022-12-03T14:34:19.907Z,7.63
2022-12-03T14:36:47.856Z,7.58
2022-12-03T14:39:15.767Z,7.46
2022-12-03T14:42:01.154Z,7.42
2022-12-03T14:44:29.052Z,7.52
2022-12-03T14:46:58.320Z,7.45
2022-12-03T14:49:26.402Z,7.49
2022-12-03T14:51:54.485Z,7.44
2022-12-03T14:54:22.576Z,7.45
2022-12-03T14:56:50.481Z,7.47
2022-12-03T14:59:23.001Z,7.48
2022-12-03T15:01:54.306Z,7.35
2022-12-03T15:04:23.714Z,7.58
2022-12-03T15:06:51.627Z,7.60
2022-12-03T15:09:19.664Z,7.56
2022-12-03T15:11:47.617Z,7.50
2022-12-03T15:14:15.597Z,7.29
2022-12-03T15:16:43.619Z,7.14
2022-12-03T15:19:11.677Z,7.18
2022-12-03T15:21:41.293Z,7.14
2022-12-03T15:24:10.443Z,7.24
2022-12-03T15:26:38.367Z,7.40
2022-12-03T15:29:06.267Z,7.35
2022-12-03T15:31:34.279Z,7.30
2022-12-03T15:34:02.420Z,7.53
2022-12-03T15:36:30.526Z,7.46
2022-12-03T15:38:59.868Z,7.37
2022-12-03T15:41:29.984Z,7.45
2022-12-03T15:43:59.275Z,7.45
2022-12-03T15:46:28.465Z,7.44
2022-12-03T15:48:59.799Z,7.24
2022-12-03T15:51:27.878Z,7.44
2022-12-03T15:53:58.333Z,7.48
2022-12-03T15:56:27.652Z,7.38
2022-12-03T15:58:55.576Z,7.26
2022-12-03T16:01:23.557Z,7.37
2022-12-03T16:03:51.544Z,7.44
2022-12-03T16:06:19.690Z,7.36
2022-12-03T16:08:48.177Z,7.36
2022-12-03T16:11:16.171Z,7.49
2022-12-03T16:13:45.454Z,7.42
2022-12-03T16:16:13.552Z,7.58
2022-12-03T16:18:41.604Z,7.53
2022-12-03T16:21:09.545Z,7.58
2022-12-03T16:23:37.541Z,7.52
2022-12-03T16:26:05.511Z,7.56
2022-12-03T16:28:33.394Z,7.44
2022-12-03T16:31:02.700Z,7.40
2022-12-03T16:33:30.719Z,7.39
2022-12-03T16:35:58.611Z,7.31
2022-12-03T16:38:26.514Z,7.32
2022-12-03T16:40:54.460Z,7.28
2022-12-03T16:43:22.458Z,7.38
2022-12-03T16:46:09.915Z,7.40
2022-12-03T16:48:39.225Z,7.40
2022-12-03T16:51:07.427Z,7.46
2022-12-03T16:53:35.532Z,7.50
2022-12-03T16:56:03.581Z,7.62
2022-12-03T16:58:31.581Z,7.56
2022-12-03T17:00:59.485Z,7.42
2022-12-03T17:03:33.471Z,7.51
2022-12-03T17:06:04.035Z,7.64
2022-12-03T17:08:32.448Z,7.47
2022-12-03T17:11:00.437Z,7.35
2022-12-03T17:13:28.377Z,7.36
2022-12-03T17:15:56.472Z,7.36
2022-12-03T17:18:24.471Z,7.24
2022-12-03T17:20:52.566Z,7.29
2022-12-03T17:23:21.864Z,7.22
2022-12-03T17:25:49.902Z,7.18
2022-12-03T17:28:17.778Z,7.13
2022-12-03T17:30:45.865Z,7.33
2022-12-03T17:33:13.802Z,7.56
2022-12-03T17:35:42.326Z,7.55
2022-12-03T17:38:11.191Z,7.38
2022-12-03T17:40:40.518Z,7.40
2022-12-03T17:43:08.346Z,7.38
2022-12-03T17:45:36.880Z,7.50
2022-12-03T17:48:05.393Z,7.51
2022-12-03T17:50:33.357Z,7.42
2022-12-03T17:53:01.322Z,7.42
2022-12-03T17:55:38.325Z,7.47
2022-12-03T17:58:12.017Z,7.40
2022-12-03T18:00:40.258Z,7.41
2022-12-03T18:03:08.334Z,7.26
2022-12-03T18:05:36.354Z,7.23
2022-12-03T18:08:04.590Z,7.09
2022-12-03T18:10:32.652Z,7.21
2022-12-03T18:13:02.175Z,7.15
2022-12-03T18:15:32.154Z,7.22
2022-12-03T18:18:01.149Z,7.04
2022-12-03T18:20:29.231Z,7.05
2022-12-03T18:22:59.280Z,7.20
2022-12-03T18:25:28.149Z,6.93
2022-12-03T18:27:56.371Z,7.07
2022-12-03T18:30:24.599Z,7.01
2022-12-03T18:32:53.942Z,6.94
2022-12-03T18:35:21.940Z,6.86
2022-12-03T18:37:50.784Z,6.91
2022-12-03T18:40:22.187Z,6.76
2022-12-03T18:42:50.214Z,6.74
2022-12-03T18:45:18.702Z,6.70
2022-12-03T18:47:46.830Z,6.40
2022-12-03T18:50:16.180Z,6.65
2022-12-03T18:52:44.116Z,6.84
2022-12-03T18:55:18.472Z,6.50
2022-12-03T18:57:46.816Z,6.83
2022-12-03T19:00:16.040Z,6.63
2022-12-03T19:05:35.043Z,6.71
2022-12-03T19:08:03.269Z,6.65
2022-12-03T19:10:31.448Z,6.68
2022-12-03T19:12:59.379Z,6.62
2022-12-03T19:15:27.420Z,6.68
2022-12-03T19:17:55.311Z,6.49
2022-12-03T19:20:23.402Z,6.56
2022-12-03T19:22:52.870Z,6.51
2022-12-03T19:25:20.789Z,6.07
2022-12-03T19:27:50.236Z,6.60
2022-12-03T19:30:18.685Z,6.59
2022-12-03T19:32:46.680Z,6.50
2022-12-03T19:35:15.965Z,6.35
2022-12-03T19:37:44.023Z,6.42
2022-12-03T19:40:14.065Z,6.42
2022-12-03T19:42:42.174Z,6.51
2022-12-03T19:45:11.609Z,6.40
2022-12-03T19:47:39.553Z,6.50
2022-12-03T19:50:10.074Z,6.38
2022-12-03T19:52:38.042Z,6.40
2022-12-03T19:55:06.695Z,6.28
2022-12-03T19:57:35.999Z,6.41
2022-12-03T20:00:05.307Z,6.64
2022-12-03T20:02:33.653Z,6.64
2022-12-03T20:05:01.686Z,6.60
2022-12-03T20:07:31.172Z,6.30
2022-12-03T20:09:59.203Z,6.47
2022-12-03T20:12:27.133Z,6.31
2022-12-03T20:14:56.841Z,6.40
2022-12-03T20:17:24.908Z,6.42
2022-12-03T20:19:53.215Z,6.49
2022-12-03T20:22:22.385Z,6.67
2022-12-03T20:24:50.380Z,6.63
2022-12-03T20:27:22.631Z,6.73
2022-12-03T20:29:51.148Z,6.62
2022-12-03T20:32:20.634Z,6.72
2022-12-03T20:34:49.661Z,6.75
2022-12-03T20:37:18.233Z,6.60
2022-12-03T20:39:46.160Z,6.44
2022-12-03T20:42:14.166Z,6.46
2022-12-03T20:44:42.182Z,6.47
2022-12-03T20:47:10.096Z,6.61
2022-12-03T20:49:40.302Z,6.64
2022-12-03T20:52:08.457Z,6.63
2022-12-03T20:54:36.397Z,6.62
2022-12-03T20:57:04.896Z,6.24
2022-12-03T20:59:32.952Z,6.12
2022-12-03T21:02:01.106Z,6.45
2022-12-03T21:04:29.460Z,6.25
2022-12-03T21:06:59.013Z,6.28
2022-12-03T21:09:26.939Z,6.31
2022-12-03T21:11:56.859Z,6.26
2022-12-03T21:14:24.884Z,6.03
2022-12-03T21:17:07.778Z,6.25
2022-12-03T21:19:36.948Z,6.31
2022-12-03T21:22:06.871Z,6.40
2022-12-03T21:24:35.628Z,6.44
2022-12-03T21:27:03.990Z,6.41
2022-12-03T21:29:32.001Z,6.19
2022-12-03T21:31:59.844Z,6.49
2022-12-03T21:34:34.172Z,6.23
2022-12-03T21:37:06.950Z,6.26
2022-12-03T21:39:36.676Z,6.11
2022-12-03T21:42:19.409Z,6.29
2022-12-03T21:44:53.591Z,6.32
2022-12-03T21:47:21.601Z,6.33
2022-12-03T21:49:49.706Z,6.12
2022-12-03T21:52:17.625Z,6.39
2022-12-03T21:54:47.185Z,6.22
2022-12-03T21:57:15.131Z,6.19
2022-12-03T21:59:43.086Z,6.19
2022-12-03T22:02:11.442Z,6.11
2022-12-03T22:04:39.878Z,6.15
2022-12-03T22:07:07.851Z,6.15
2022-12-03T22:09:35.831Z,5.95
2022-12-03T22:12:05.567Z,6.16
2022-12-03T22:14:33.570Z,6.13
2022-12-03T22:17:01.538Z,5.96
2022-12-03T22:19:29.609Z,5.89
2022-12-03T22:22:00.276Z,6.11
2022-12-03T22:24:28.135Z,6.04
2022-12-03T22:26:56.288Z,6.20
2022-12-03T22:29:25.586Z,6.12
2022-12-03T22:31:53.535Z,6.21
2022-12-03T22:34:21.486Z,6.15
2022-12-03T22:36:49.572Z,6.05
2022-12-03T22:39:17.566Z,6.06
2022-12-03T22:41:45.604Z,6.18
2022-12-03T22:44:13.844Z,6.08
2022-12-03T22:46:43.338Z,6.25
2022-12-03T22:49:13.444Z,6.17
2022-12-03T22:51:41.497Z,6.12
2022-12-03T22:54:09.469Z,6.11
2022-12-03T22:56:37.431Z,6.20
2022-12-03T22:59:05.669Z,6.14
2022-12-03T23:01:35.609Z,5.95
2022-12-03T23:04:06.124Z,5.99
2022-12-03T23:06:35.618Z,6.00
2022-12-03T23:09:05.327Z,6.05
2022-12-03T23:11:33.302Z,6.17
2022-12-03T23:14:01.192Z,5.97
2022-12-03T23:16:31.698Z,6.30
2022-12-03T23:19:01.876Z,6.24
2022-12-03T23:21:34.129Z,6.11
2022-12-03T23:24:03.974Z,5.99
2022-12-03T23:26:36.034Z,6.04
2022-12-03T23:29:04.447Z,5.99
2022-12-03T23:31:33.944Z,5.99
2022-12-03T23:34:02.471Z,6.01
2022-12-03T23:36:33.994Z,5.51
2022-12-03T23:39:02.312Z,5.75
2022-12-03T23:41:30.374Z,5.88
2022-12-03T23:43:58.552Z,5.86
2022-12-03T23:46:28.449Z,5.91
2022-12-03T23:48:58.484Z,5.82
2022-12-03T23:51:27.386Z,5.95
2022-12-03T23:53:57.355Z,5.94
2022-12-03T23:56:28.078Z,5.84
2022-12-03T23:58:56.419Z,5.87
